View Sortable Currents For Network
ASOSAWOSCoCoRaHSCOOPDCPISUSM
SchoolNetOtherSCANMy FavoritesBy StateRWIS
RWIS SurfaceRWIS TrafficRWIS SoilBy NWS WFO

Current AWOS Conditions

** This page will automatically refresh every five minutes.
Sorted by: (Speed)     Click on a column to sort it.

Add ID: Name: Ob Time   Wind [knots]   Rainfall
Temp (Hi / Lo) DewP Feels RH% Dir Speed Peak Gust
@ Time
Alti Vsby Hour Today
SHLSHELDON06:55 AM 63(66/63) 63 64 100 40 18G2430 @ 12:35 AM 29.71 10 0.01 0.07
CCYCHARLES CITY06:55 AM 64(68/64) 63 65 97 90 15G2023 @ 05:20 AM 29.76 1.25 0.13 0.65
AXAALGONA 20 Jun 08:05 PMSite is Offline
DEHDECORAH06:55 AM 63(66/63) 63 64 100 80 12G1717 @ 01:00 AM 29.78 4 0.12 0.46
CBFCOUNCIL BLUFFS06:55 AM 61(63/59) 0 250 12G1822 @ 12:00 AM 29.66 7 0 0.06
OLZOELWEIN06:55 AM 64(66/64) 64 66 100 100 11G1620 @ 01:00 AM 29.75 10 0.04 1.22
RDKRED OAK06:55 AM 63(64/61) 61 64 93 230 1121 @ 01:20 AM 29.7 10 0
FXYForest City06:55 AM 64(68/64) 64 66 100 70 11G1620 @ 01:05 AM 29.73 4 0 0.56
IIBINDEPENDENCE06:55 AM 66(68/65) 64 67 93 120 1017 @ 12:55 AM 29.74 5 0 0.0001
CWICLINTON06:56 AM 66(68/66) 65 68 97 90 1012 @ 03:50 AM 29.76 3 0.02 0.49
MXOMONTICELLO MUNI06:55 AM 66(68/66) 66 68 100 100 916 @ 12:15 AM 29.74 4 0 0.11
ICLCLARINDA06:55 AM 63(66/61) 59 63 87 240 920 @ 02:00 AM 29.75 10 0
SLBStorm Lake06:55 AM 63(64/63) 63 64 100 70 814 @ 05:40 AM 29.69 9 0
SDASHENANDOAH MUNI06:55 AM 63(64/61) 59 63 87 240 8G1420 @ 02:30 AM 29.73 10 0
CSQCRESTON06:55 AM 61(64/59) 59 61 93 230 717 @ 03:50 AM 29.72 2 0
LRJLE MARS06:55 AM 64(64/61) 64 66 100 20 733 @ 12:30 AM 29.7 5 0
CAVCLARION06:55 AM 66(68/66) 63 67 90 130 711 @ 06:35 AM 29.7 10 0
IFAIowa Falls06:55 AM 65(69/64) 64 67 97 100 78 @ 02:15 AM 29.73 10 0 0.09
AIOATLANTIC06:55 AM 63(64/61) 61 64 93 210 616 @ 06:15 AM 29.68 10 0
TNUNEWTON MUNI06:55 AM 64(68/61) 63 65 97 170 67 @ 12:10 AM 29.71 10 0
EBSWebster City06:45 AM 64(68/64) 63 65 97 130 613 @ 12:15 AM 29.67 10 0
HPTHampton06:35 AM 64(66/64) 64 66 100 130 617 @ 12:35 AM 29.72 10 0
FODFORT DODGE06:56 AM 64(66/64) 63 65 97 80 58 @ 01:05 AM 29.69 10 0 0.06
BNWBOONE MUNI06:55 AM 63(66/63) 63 64 100 130 510 @ 12:20 AM 29.69 9 0
IKVANKENY 20 Jun 04:15 AMSite is Offline
OXVKnoxville06:55 AM 64(68/63) 63 65 97 150 47 @ 12:10 AM 29.71 6 0
OOAOskaloosa06:55 AM 64(69/64) 62 65 93 230 45 @ 12:55 AM 29.73 10 0
VTIVINTON06:55 AM 71(71/68) 70 74 97 90 414 @ 12:10 AM 29.73 3 0
PEAPELLA06:55 AM 64(69/62) 61 65 90 170 47 @ 01:40 AM 29.72 10 0
AWGWASHINGTON06:55 AM 70(70/68) 70 73 100 140 410 @ 12:00 AM 29.74 4 0
ORCOrange City06:55 AM 66(66/63) 64 67 93 40 425 @ 12:00 AM 29.72 1.75 0.04 0.21
PROPerry06:55 AM 63(67/63) 63 64 100 200 49 @ 02:30 AM 29.69 5 0 0.0001
I75Osceola06:55 AM 63(67/63) 60 63 90 210 48 @ 05:05 AM 29.71 10 0
CNCCHARITON06:55 AM 63(68/63) 61 64 93 240 410 @ 06:50 AM 29.72 9 0
FFLFAIRFIELD06:55 AM 66(70/66) 66 68 100 210 37 @ 04:35 AM 29.73 9 0
DNSDENISON06:55 AM 61(63/61) 61 62 100 120 313 @ 12:30 AM 29.68 4 0 0.0001
MPZMOUNT PLEASANT06:45 AM 68(68/68) 68 70 100 220 35 @ 12:35 AM 29.74 5 0.01 0.02
EOKKEOKUK MUNI06:55 AM 68(70/68) 66 70 93 200 37 @ 01:50 AM 29.73 7 0
FSWFORT MADISON06:55 AM 70(70/70) 70 73 100 190 35 @ 02:15 AM 29.75 7 0
CKPCherokee06:55 AM 64(64/62) 64 66 100 30 39 @ 01:30 AM 29.69 7 0
GGIGrinnell06:55 AM 64(69/64) 62 65 93 150 36 @ 01:10 AM 29.74 10 0
TVKCenterville06:55 AM 63(66/59) 63 100 0 00 @ 06:00 PM 29.75 10 0
MUTMUSCATINE06:55 AM M(0/0) M M M @ 06:00 PM 0
ADUAUDUBON06:55 AM 61(64/61) 59 93 0 07 @ 12:35 AM 29.69 10 0.01 0.02
CINCARROLL06:55 AM 63(66/63) 63 100 0 012 @ 12:55 AM 29.67 10 0